Flight Track Log - Related Links

Times and Time Zones

All times are in EDT time to prevent confusion due to time zone crossing. See the AWI3621 flight status page for this flight to view local times or setup timezone preferences in your user account.

Time Position Orientation Groundspeed Altitude Reporting Facility
EDT Latitude Longitude Course Direction KTS MPH feet Rate Location/Type
Mon 07:04:59 PM 39.8667 -75.2833 247° West 167 192 800  Level Philadelphia TRACON
Mon 07:05:47 PM 39.8500 -75.3333 247° West 176 203 2,100 1,833 Climbing Philadelphia TRACON
Mon 07:06:47 PM 39.8333 -75.4000 252° West 207 238 4,100 1,895 Climbing Philadelphia TRACON
Mon 07:07:41 PM 39.8833 -75.4500 323° Northwest 234 269 5,700 1,800 Climbing Philadelphia TRACON
Mon 07:08:47 PM 39.9500 -75.4667 349° North 264 304 7,700 1,761 Climbing Philadelphia TRACON
Mon 07:09:13 PM 39.9839 -75.4819 341° North 270 311 8,400 1,953 Climbing New York Center
Mon 07:10:13 PM 40.0581 -75.5089 344° North 281 323 10,500 1,450 Climbing New York Center
Mon 07:11:13 PM 40.1444 -75.5364 346° North 300 345 11,300 1,240 Climbing New York Center
Mon 07:12:14 PM 40.2322 -75.5806 339° North 327 376 13,000 1,636 Climbing New York Center
Mon 07:13:14 PM 40.2953 -75.6692 313° West 334 384 14,600 1,563 Climbing New York Center
Mon 07:14:13 PM 40.3558 -75.7633 310° West 334 384 16,100 1,412 Climbing New York Center
Mon 07:15:13 PM 40.4128 -75.8467 312° West 339 390 17,400 1,230 Climbing New York Center
Mon 07:16:15 PM 40.4494 -75.9611 293° West 350 403 18,600 793 Climbing New York Center
Mon 07:17:14 PM 40.4731 -76.0886 284° West 350 403 19,000 202 Climbing New York Center
Mon 07:18:14 PM 40.4956 -76.2347 281° West 371 427 19,000 446 Level New York Center
Mon 07:19:15 PM 40.5114 -76.3425 281° West 377 434 19,900 1,169 Climbing New York Center
Mon 07:20:12 PM 40.5353 -76.4975 282° West 372 428 21,300 1,220 Climbing New York Center
Mon 07:21:13 PM 40.5581 -76.6250 283° West 367 422 22,300 843 Climbing New York Center
Mon 07:22:13 PM 40.5897 -76.7453 289° West 361 415 23,000 689 Climbing New York Center
Mon 07:23:15 PM 40.6231 -76.8686 290° West 355 409 23,700 1,100 Climbing New York Center
Mon 07:24:13 PM 40.6525 -76.9833 289° West 349 402 25,200 864 Climbing New York Center
Mon 07:25:13 PM 40.6839 -77.0983 290° West 344 396 25,400 397 Climbing New York Center
Mon 07:26:14 PM 40.7150 -77.2164 289° West 339 390 26,000 295 Climbing New York Center
Mon 07:27:15 PM 40.7483 -77.3319 291° West 339 390 26,000  Level New York Center
Mon 07:28:13 PM 40.7789 -77.4528 289° West 339 390 26,000  Level New York Center
Mon 07:29:13 PM 40.8114 -77.5792 289° West 356 410 26,000  Level New York Center
Mon 07:30:14 PM 40.8436 -77.7058 289° West 361 415 26,000  Level New York Center
Mon 07:31:23 PM 40.8764 -77.8425 288° West 359 413 26,000  Level Cleveland Center
Mon 07:32:23 PM 40.9131 -77.9839 289° West 365 420 26,000  Level Cleveland Center
Mon 07:33:23 PM 40.9347 -78.1150 282° West 371 427 26,000  Level Cleveland Center
Mon 07:34:23 PM 40.9583 -78.2350 285° West 377 434 26,000  Level Cleveland Center
Mon 07:35:23 PM 40.9797 -78.3717 282° West 377 434 26,000  Level Cleveland Center
Mon 07:36:23 PM 41.0031 -78.5031 283° West 377 434 26,000  Level Cleveland Center
Mon 07:37:23 PM 41.0325 -78.6369 286° West 371 427 26,000  Level Cleveland Center
Mon 07:38:23 PM 41.0575 -78.7683 284° West 371 427 26,000  Level Cleveland Center
Mon 07:39:23 PM 41.0847 -78.9028 285° West 371 427 26,000  Level Cleveland Center
Mon 07:40:23 PM 41.1136 -79.0369 286° West 371 427 26,000  Level Cleveland Center
Mon 07:41:23 PM 41.1383 -79.1742 283° West 376 433 26,000 -800 Level Cleveland Center
Mon 07:42:23 PM 41.1669 -79.3117 285° West 382 440 24,400 -1,000 Descending Cleveland Center
Mon 07:43:23 PM 41.1936 -79.4492 284° West 382 440 24,000 -200 Descending Cleveland Center
Mon 07:44:23 PM 41.2219 -79.5839 286° West 382 440 24,000  Level Cleveland Center
Mon 07:45:23 PM 41.2458 -79.7217 283° West 382 440 24,000  Level Cleveland Center
Mon 07:46:23 PM 41.2739 -79.8592 285° West 382 440 24,000  Level Cleveland Center
Mon 07:48:23 PM 41.3253 -80.1269 284° West 377 434 24,000 -467 Level Cleveland Center
Mon 07:49:23 PM 41.3508 -80.2594 284° West 377 434 22,600 -1,750 Descending Cleveland Center
Mon 07:50:23 PM 41.3761 -80.4061 283° West 377 434 20,500 -2,050 Descending Cleveland Center
Mon 07:51:23 PM 41.4014 -80.5333 285° West 367 422 18,500 -2,000 Descending Cleveland Center
Mon 07:52:23 PM 41.4242 -80.6522 284° West 348 400 16,500 -2,050 Descending Cleveland Center
Mon 07:53:23 PM 41.4469 -80.7742 284° West 348 400 14,400 -2,050 Descending Cleveland Center
Mon 07:54:23 PM 41.4675 -80.8936 283° West 338 389 12,400 -2,067 Descending Cleveland Center
Mon 07:54:53 PM 41.4758 -80.9517 281° West 309 356 11,300 -2,000 Descending Cleveland Center
Mon 07:55:23 PM 41.4881 -81.0044 287° West 326 375 10,400 -1,279 Descending Cleveland Center
Mon 07:55:54 PM 41.4983 -81.0628 283° West 311 358 10,000 -400 Descending Cleveland Center
Mon 07:56:23 PM 41.5083 -81.1211 283° West 315 362 10,000  Level Cleveland Center
Mon 07:56:55 PM 41.5186 -81.1822 283° West 323 372 10,000 -500 Level Cleveland Center
Mon 07:57:23 PM 41.5244 -81.2294 279° West 313 360 9,500 -1,500 Descending Cleveland Center
Mon 07:57:55 PM 41.5306 -81.2822 279° West 271 312 8,500 -1,900 Descending Cleveland Center
Mon 07:58:23 PM 41.5386 -81.3294 283° West 291 335 7,600 -1,475 Descending Cleveland Center
Mon 07:58:56 PM 41.5464 -81.3822 281° West 273 314 7,000 -600 Descending Cleveland Center
Mon 07:59:23 PM 41.5544 -81.4267 284° West 275 316 7,000  Level Cleveland Center
Mon 07:59:57 PM 41.5644 -81.4850 283° West 270 311 7,000  Level Cleveland Center
Mon 08:00:23 PM 41.5706 -81.5211 283° West 270 311 7,000 -400 Level Cleveland Center
Mon 08:00:57 PM 41.5658 -81.5656 262° West 211 243 6,600 -800 Descending Cleveland Center
Mon 08:01:23 PM 41.5594 -81.5961 254° West 229 264 6,200 -590 Descending Cleveland Center
Mon 08:01:58 PM 41.5508 -81.6347 253° West 182 209 6,000 -800 Descending Cleveland Center
Mon 08:02:23 PM 41.5381 -81.6539 228° Southwest 190 219 5,400 -1,475 Descending Cleveland Center
Mon 08:02:59 PM 41.5189 -81.6842 230° Southwest 168 193 4,500 -1,400 Descending Cleveland Center
Mon 08:03:23 PM 41.5106 -81.6978 231° Southwest 178 205 4,000 -1,500 Descending Cleveland Center
Mon 08:03:59 PM 41.4894 -81.7308 230° Southwest 167 192 3,000 -1,667 Descending Cleveland Center

Login

Don't have an account? Register now (free) for customized features, flight alerts, and more!